Time;durP1;ratioP1;P1;durP2;ratioP2;P2;SDS_P1;SDS_P2;PMS_P1;PMS_P2;Temp;Humidity;BMP_temperature;BMP_pressure;BME280_temperature;BME280_humidity;BME280_pressure;Samples;Min_cycle;Max_cycle;Signal;HPM_P1;HPM_P2
2023/09/29 00:00:51;;;;;;;37.50;20.30;;;;;;;19.89;49.29;101075.23;107988;1260;70536;-67
2023/09/29 00:03:19;;;;;;;33.10;19.70;;;;;;;19.89;49.25;101074.02;107938;1254;72727;-66
2023/09/29 00:05:49;;;;;;;33.30;19.20;;;;;;;19.82;49.36;101077.44;107964;1258;61706;-66
2023/09/29 00:08:17;;;;;;;38.00;19.70;;;;;;;19.72;49.63;101074.65;108033;1257;59129;-66
2023/09/29 00:10:45;;;;;;;36.40;19.20;;;;;;;19.74;49.57;101074.77;107977;1256;71793;-66
2023/09/29 00:13:13;;;;;;;34.40;19.10;;;;;;;19.75;49.49;101069.70;107974;1257;68742;-66
2023/09/29 00:15:40;;;;;;;32.10;19.00;;;;;;;19.70;49.67;101072.46;107960;1256;73143;-66
2023/09/29 00:18:08;;;;;;;28.90;17.60;;;;;;;19.67;49.90;101073.38;107877;1254;61653;-66
2023/09/29 00:20:35;;;;;;;30.90;19.00;;;;;;;19.61;50.02;101072.80;107816;1254;60068;-66
2023/09/29 00:23:03;;;;;;;34.20;20.20;;;;;;;19.73;49.62;101069.81;107882;1257;73079;-65
2023/09/29 00:25:31;;;;;;;29.40;17.90;;;;;;;19.68;49.61;101071.51;107974;1257;69028;-66
2023/09/29 00:27:59;;;;;;;37.20;20.00;;;;;;;19.19;50.52;101071.02;107873;1256;72508;-65
2023/09/29 00:30:27;;;;;;;35.10;21.00;;;;;;;19.11;50.79;101071.30;107875;1254;60792;-65
2023/09/29 00:32:55;;;;;;;36.70;19.70;;;;;;;19.15;50.85;101069.64;107990;1254;59005;-64
2023/09/29 00:35:29;;;;;;;37.00;19.60;;;;;;;19.16;50.86;101067.45;107877;1257;71215;-66
2023/09/29 00:37:57;;;;;;;36.90;19.40;;;;;;;19.16;50.67;101068.84;107959;1257;68865;-65
2023/09/29 00:40:25;;;;;;;34.00;19.80;;;;;;;19.08;50.80;101063.10;107818;1263;72640;-66
2023/09/29 00:42:53;;;;;;;36.80;20.70;;;;;;;19.11;50.81;101065.98;107756;1257;61813;-66
2023/09/29 00:45:23;;;;;;;32.10;18.40;;;;;;;19.05;50.91;101063.79;107948;1256;60013;-65
2023/09/29 00:48:06;;;;;;;35.00;19.40;;;;;;;18.94;51.35;101065.83;107762;1256;73006;-67
2023/09/29 00:50:34;;;;;;;40.90;20.10;;;;;;;18.99;51.10;101062.34;107862;1260;70069;-66
2023/09/29 00:53:07;;;;;;;33.90;18.50;;;;;;;19.20;50.75;101062.05;107734;1256;72679;-66
2023/09/29 00:55:35;;;;;;;36.00;19.90;;;;;;;19.28;50.53;101066.35;107918;1256;61766;-66
2023/09/29 00:58:05;;;;;;;32.80;19.30;;;;;;;19.26;50.50;101067.03;107713;1257;59980;-65
2023/09/29 01:00:36;;;;;;;33.50;18.70;;;;;;;19.06;50.86;101068.05;107826;1256;72115;-66
2023/09/29 01:03:06;;;;;;;34.50;19.10;;;;;;;18.86;51.19;101065.79;107969;1257;70024;-66
2023/09/29 01:05:39;;;;;;;33.70;19.30;;;;;;;18.82;51.29;101064.92;108023;1260;72690;-65
2023/09/29 01:08:09;;;;;;;35.80;19.40;;;;;;;18.81;51.36;101064.13;107746;1255;61670;-67
2023/09/29 01:10:36;;;;;;;35.70;19.90;;;;;;;18.83;51.32;101067.02;107670;1263;59603;-66
2023/09/29 01:13:05;;;;;;;30.10;18.90;;;;;;;18.86;51.31;101064.02;107978;1255;72485;-63
2023/09/29 01:15:34;;;;;;;33.80;19.60;;;;;;;18.84;51.35;101065.04;107964;1258;71332;-65
2023/09/29 01:18:02;;;;;;;32.50;18.20;;;;;;;19.15;50.73;101060.58;107779;1257;71970;-67
2023/09/29 01:20:30;;;;;;;28.50;18.00;;;;;;;19.22;50.48;101064.05;107940;1256;61631;-66
2023/09/29 01:23:01;;;;;;;34.60;19.60;;;;;;;19.19;50.56;101062.45;108003;1257;60374;-66
2023/09/29 01:25:29;;;;;;;32.10;17.90;;;;;;;19.23;50.46;101064.19;107783;1257;73206;-66
2023/09/29 01:27:58;;;;;;;37.10;20.00;;;;;;;19.24;50.39;101064.98;107964;1257;69099;-67
2023/09/29 01:30:27;;;;;;;36.70;19.90;;;;;;;19.21;50.41;101065.54;107931;1257;72656;-67
2023/09/29 01:32:57;;;;;;;31.80;20.20;;;;;;;19.21;50.30;101064.67;107931;1257;62674;-67
2023/09/29 01:35:25;;;;;;;37.30;20.40;;;;;;;19.26;50.13;101064.69;108037;1254;59922;-66
2023/09/29 01:37:53;;;;;;;32.00;19.40;;;;;;;19.31;49.87;101063.17;107800;1256;72195;-66
2023/09/29 01:40:22;;;;;;;33.90;19.40;;;;;;;19.20;50.18;101064.38;107896;1258;70037;-66
2023/09/29 01:42:50;;;;;;;38.60;20.90;;;;;;;19.12;50.37;101062.70;107778;1256;73255;-65
2023/09/29 01:45:18;;;;;;;34.70;20.90;;;;;;;19.25;50.09;101064.63;107982;1255;60476;-66
2023/09/29 01:47:46;;;;;;;39.00;20.20;;;;;;;19.22;49.95;101060.88;107947;1256;60409;-66
2023/09/29 01:50:17;;;;;;;42.80;22.60;;;;;;;19.18;49.97;101059.67;107909;1256;73342;-64
2023/09/29 01:52:46;;;;;;;35.70;20.50;;;;;;;19.21;49.93;101057.57;107758;1256;70592;-65
2023/09/29 01:55:14;;;;;;;35.20;21.00;;;;;;;19.13;50.09;101058.70;107889;1256;72621;-67
2023/09/29 01:57:42;;;;;;;34.30;19.60;;;;;;;19.12;50.02;101061.65;107925;1256;60563;-66
2023/09/29 02:00:14;;;;;;;41.90;22.40;;;;;;;18.98;50.25;101064.21;107856;1257;60319;-66
2023/09/29 02:02:43;;;;;;;40.40;22.80;;;;;;;19.09;50.08;101064.85;107917;1256;72567;-64
2023/09/29 02:05:11;;;;;;;39.00;22.30;;;;;;;19.20;49.70;101061.37;107933;1256;70725;-66
2023/09/29 02:07:39;;;;;;;42.80;23.00;;;;;;;19.07;49.92;101061.39;107805;1256;72579;-66
2023/09/29 02:10:08;;;;;;;37.30;21.90;;;;;;;19.00;50.16;101060.54;107755;1256;61857;-67
2023/09/29 02:12:46;;;;;;;38.30;20.70;;;;;;;18.99;50.20;101062.19;108011;1256;60328;-63
2023/09/29 02:15:17;;;;;;;41.00;22.20;;;;;;;19.06;50.05;101058.77;107828;1255;72621;-66
2023/09/29 02:17:45;;;;;;;41.30;22.60;;;;;;;19.04;49.98;101058.35;107686;1258;68741;-68
2023/09/29 02:20:15;;;;;;;40.30;22.60;;;;;;;19.02;50.04;101056.86;107933;1259;72717;-66
2023/09/29 02:22:42;;;;;;;37.60;22.70;;;;;;;18.96;50.13;101056.15;108001;1259;60392;-65
2023/09/29 02:25:11;;;;;;;41.00;22.20;;;;;;;18.91;50.36;101057.69;107914;1254;60445;-65
2023/09/29 02:27:39;;;;;;;38.20;22.30;;;;;;;18.85;50.54;101059.40;107733;1254;73919;-66
2023/09/29 02:30:10;;;;;;;31.60;20.40;;;;;;;18.88;50.45;101057.11;107907;1254;70443;-66
2023/09/29 02:32:38;;;;;;;38.40;21.40;;;;;;;18.75;50.68;101061.94;107850;1254;71981;-66
2023/09/29 02:35:07;;;;;;;41.70;22.70;;;;;;;18.66;50.84;101060.09;107749;1254;61847;-66
2023/09/29 02:37:36;;;;;;;34.90;20.10;;;;;;;18.57;51.05;101062.02;107973;1254;62345;-66
2023/09/29 02:40:13;;;;;;;48.10;23.20;;;;;;;18.51;51.13;101061.52;107772;1254;73878;-66
2023/09/29 02:42:41;;;;;;;41.90;22.80;;;;;;;18.45;51.12;101064.29;107833;1258;68758;-65
2023/09/29 02:45:09;;;;;;;29.90;20.50;;;;;;;18.41;51.17;101068.11;107957;1256;71400;-65
2023/09/29 02:47:39;;;;;;;42.70;22.80;;;;;;;18.43;51.27;101063.91;107907;1256;60593;-65
2023/09/29 02:50:11;;;;;;;32.70;20.20;;;;;;;18.46;51.26;101060.35;107917;1257;60185;-65
2023/09/29 02:52:39;;;;;;;31.20;19.60;;;;;;;18.47;51.30;101059.36;107932;1257;73867;-66
2023/09/29 02:55:12;;;;;;;37.30;22.00;;;;;;;18.40;51.43;101061.90;107852;1255;69919;-65
2023/09/29 02:57:41;;;;;;;31.80;20.20;;;;;;;18.46;51.32;101060.71;107866;1256;72738;-65
2023/09/29 03:00:15;;;;;;;38.60;20.20;;;;;;;18.43;51.31;101067.65;107973;1256;60717;-66
2023/09/29 03:02:43;;;;;;;35.00;21.20;;;;;;;18.39;51.37;101069.05;107984;1256;60280;-66
2023/09/29 03:05:11;;;;;;;35.80;20.20;;;;;;;18.37;51.34;101069.89;107908;1254;71975;-66
2023/09/29 03:07:39;;;;;;;35.40;21.90;;;;;;;18.26;51.47;101072.65;107825;1255;72764;-66
2023/09/29 03:10:07;;;;;;;37.70;21.60;;;;;;;18.23;51.40;101069.24;107856;1256;72311;-66
2023/09/29 03:12:36;;;;;;;44.00;21.50;;;;;;;18.24;51.41;101069.67;107930;1256;60323;-66
2023/09/29 03:15:07;;;;;;;33.60;20.20;;;;;;;18.25;51.40;101068.06;107963;1258;60009;-66
2023/09/29 03:17:34;;;;;;;;;;;;;;;18.26;51.26;101068.21;108013;1260;72649;-66
2023/09/29 03:20:09;;;;;;;40.70;21.40;;;;;;;18.17;51.49;101069.74;107967;1255;69833;-65
2023/09/29 03:22:37;;;;;;;43.50;22.10;;;;;;;18.11;51.50;101069.50;107956;1255;71081;-66
2023/09/29 03:25:05;;;;;;;34.20;19.60;;;;;;;18.08;51.67;101067.23;107918;1256;60516;-66
2023/09/29 03:27:34;;;;;;;34.40;21.10;;;;;;;18.11;51.75;101070.25;107797;1256;60357;-66
2023/09/29 03:30:04;;;;;;;30.00;19.40;;;;;;;18.16;51.63;101067.28;107886;1255;71827;-67
2023/09/29 03:32:32;;;;;;;38.00;19.60;;;;;;;18.24;51.61;101064.54;107927;1256;70459;-66
2023/09/29 03:35:00;;;;;;;34.70;20.10;;;;;;;18.32;51.54;101069.30;107972;1256;72687;-67
2023/09/29 03:37:35;;;;;;;35.20;19.30;;;;;;;18.37;51.56;101070.09;107998;1254;61699;-66
2023/09/29 03:40:10;;;;;;;38.40;21.60;;;;;;;18.33;51.67;101068.17;107933;1255;60438;-66
2023/09/29 03:42:41;;;;;;;39.50;21.30;;;;;;;18.24;51.73;101066.69;107894;1254;73018;-66
2023/09/29 03:45:11;;;;;;;33.90;19.70;;;;;;;18.36;51.46;101067.27;107907;1258;68772;-66
2023/09/29 03:47:39;;;;;;;38.40;20.90;;;;;;;18.34;51.45;101063.82;107988;1254;71452;-66
2023/09/29 03:50:10;;;;;;;36.10;19.40;;;;;;;18.30;51.46;101068.14;107911;1257;60464;-64
2023/09/29 03:52:39;;;;;;;;;;;;;;;18.43;51.28;101069.39;107946;1254;60445;-66
2023/09/29 03:55:09;;;;;;;41.40;20.60;;;;;;;18.44;51.24;101060.80;107914;1257;73924;-66
2023/09/29 03:57:38;;;;;;;28.70;18.30;;;;;;;18.52;51.06;101059.11;107928;1254;70343;-66
2023/09/29 04:00:11;;;;;;;39.60;21.50;;;;;;;18.38;51.45;101062.92;107871;1256;72682;-66
2023/09/29 04:02:40;;;;;;;40.20;21.20;;;;;;;18.15;51.90;101064.17;107937;1254;61886;-66
2023/09/29 04:05:09;;;;;;;41.20;22.50;;;;;;;18.25;51.76;101063.25;107994;1255;60211;-66
2023/09/29 04:07:39;;;;;;;44.50;20.70;;;;;;;18.20;51.92;101064.58;107952;1255;73876;-66
2023/09/29 04:10:11;;;;;;;34.40;20.30;;;;;;;18.15;51.96;101062.92;107939;1254;70072;-66
2023/09/29 04:12:40;;;;;;;45.40;23.20;;;;;;;18.18;51.96;101066.46;107977;1257;71413;-66
2023/09/29 04:15:08;;;;;;;35.30;20.60;;;;;;;18.15;52.08;101066.79;107948;1255;60492;-66
2023/09/29 04:17:36;;;;;;;33.50;20.20;;;;;;;18.09;52.28;101067.46;107799;1254;60045;-66
2023/09/29 04:20:05;;;;;;;39.10;22.50;;;;;;;17.93;52.89;101068.16;107941;1255;72687;-66
2023/09/29 04:22:34;;;;;;;42.00;22.10;;;;;;;17.97;52.94;101068.11;107982;1254;70377;-66
2023/09/29 04:25:01;;;;;;;38.20;22.40;;;;;;;18.10;53.19;101066.02;107940;1254;71626;-66
2023/09/29 04:27:29;;;;;;;36.00;20.80;;;;;;;18.26;53.14;101065.71;107906;1254;60395;-66
2023/09/29 04:29:57;;;;;;;38.20;19.40;;;;;;;18.33;52.82;101066.58;107895;1255;60111;-65
2023/09/29 04:32:24;;;;;;;38.20;20.70;;;;;;;18.41;52.55;101066.65;107881;1254;73880;-66
2023/09/29 04:34:52;;;;;;;37.70;20.50;;;;;;;18.42;52.34;101071.05;107930;1255;70119;-66
2023/09/29 04:37:19;;;;;;;29.40;18.80;;;;;;;18.47;52.27;101063.29;107925;1254;72550;-67
2023/09/29 04:39:46;;;;;;;35.40;19.90;;;;;;;18.45;52.47;101066.25;107904;1256;61693;-66
2023/09/29 04:42:14;;;;;;;37.20;21.10;;;;;;;18.46;52.56;101065.68;107933;1254;60316;-66
2023/09/29 04:44:41;;;;;;;31.30;18.70;;;;;;;18.64;52.34;101065.19;107892;1255;73785;-66
2023/09/29 04:47:09;;;;;;;45.70;20.40;;;;;;;18.65;52.28;101067.62;107895;1260;70298;-66
2023/09/29 04:49:37;;;;;;;37.60;19.00;;;;;;;18.70;52.23;101067.56;107896;1256;72797;-66
2023/09/29 04:52:04;;;;;;;37.00;20.30;;;;;;;19.01;52.29;101064.58;107888;1256;60731;-67
2023/09/29 04:54:31;;;;;;;35.40;18.30;;;;;;;19.51;52.63;101064.63;107904;1256;60277;-66
2023/09/29 04:56:59;;;;;;;35.90;19.20;;;;;;;20.21;52.00;101064.02;107900;1254;73950;-66
2023/09/29 04:59:27;;;;;;;37.00;18.20;;;;;;;20.77;50.49;101058.02;107992;1254;68398;-66
2023/09/29 05:01:54;;;;;;;33.80;16.70;;;;;;;21.14;49.55;101061.10;107908;1254;71444;-67
2023/09/29 05:04:22;;;;;;;43.10;17.70;;;;;;;21.70;48.80;101062.86;107934;1256;61175;-67
2023/09/29 05:06:49;;;;;;;41.40;16.10;;;;;;;22.40;47.62;101062.81;107933;1259;60368;-67
2023/09/29 05:09:17;;;;;;;36.60;14.90;;;;;;;23.08;45.90;101057.64;107989;1256;73912;-67
2023/09/29 05:11:44;;;;;;;30.20;15.90;;;;;;;23.89;44.49;101061.56;107955;1256;70161;-66
2023/09/29 05:14:12;;;;;;;26.60;14.30;;;;;;;24.44;43.07;101062.95;107823;1256;71380;-68
2023/09/29 05:16:39;;;;;;;23.60;13.90;;;;;;;25.09;42.16;101058.39;107750;1257;61655;-66
2023/09/29 05:19:07;;;;;;;35.60;14.10;;;;;;;25.76;40.51;101059.02;107924;1255;58978;-67
2023/09/29 05:21:36;;;;;;;26.90;15.50;;;;;;;26.30;38.90;101060.44;107846;1256;73879;-66
2023/09/29 05:24:04;;;;;;;31.10;14.30;;;;;;;26.66;37.98;101061.71;107863;1256;70596;-67
2023/09/29 05:26:31;;;;;;;26.40;14.20;;;;;;;26.79;37.72;101062.00;107815;1256;71242;-66
2023/09/29 05:28:59;;;;;;;28.10;14.10;;;;;;;27.38;36.56;101061.13;107926;1255;60960;-68
2023/09/29 05:31:27;;;;;;;32.40;15.50;;;;;;;27.72;35.99;101062.20;107962;1255;60440;-67
2023/09/29 05:33:55;;;;;;;31.30;14.40;;;;;;;28.01;35.52;101059.34;107913;1255;71969;-67
2023/09/29 05:36:23;;;;;;;38.40;14.70;;;;;;;28.38;34.65;101057.39;107868;1255;69192;-67
2023/09/29 05:38:50;;;;;;;28.50;14.40;;;;;;;28.67;34.02;101058.83;107993;1256;73222;-68
2023/09/29 05:41:17;;;;;;;27.60;14.30;;;;;;;28.95;33.88;101058.41;107902;1256;60406;-68
2023/09/29 05:43:45;;;;;;;29.00;14.90;;;;;;;29.39;33.80;101057.45;107919;1260;60315;-68
2023/09/29 05:46:12;;;;;;;31.30;15.00;;;;;;;30.13;32.75;101056.28;107932;1256;73074;-68
2023/09/29 05:48:39;;;;;;;35.20;14.80;;;;;;;30.79;31.69;101049.48;107939;1256;69423;-68
2023/09/29 05:51:07;;;;;;;37.20;15.90;;;;;;;31.28;30.94;101047.98;107907;1256;71394;-67
2023/09/29 05:53:34;;;;;;;37.40;15.60;;;;;;;31.67;30.09;101051.41;107917;1256;60394;-68
2023/09/29 05:56:08;;;;;;;39.20;16.80;;;;;;;32.20;29.19;101050.95;107895;1255;60429;-68
2023/09/29 05:58:39;;;;;;;29.40;15.90;;;;;;;32.75;28.69;101050.97;107948;1259;73126;-67
2023/09/29 06:01:09;;;;;;;;;;;;;;;33.10;27.88;101046.83;107909;1256;71150;-68
2023/09/29 06:03:37;;;;;;;43.30;15.80;;;;;;;33.51;27.08;101043.89;107899;1256;71293;-68
2023/09/29 06:06:05;;;;;;;32.90;15.90;;;;;;;33.86;26.58;101043.73;107953;1255;60826;-67
2023/09/29 06:08:33;;;;;;;31.70;14.60;;;;;;;34.28;25.97;101043.34;107960;1256;59673;-67
2023/09/29 06:11:20;;;;;;;36.50;16.10;;;;;;;34.75;25.20;101041.19;107936;1256;65393;-68
2023/09/29 06:13:47;;;;;;;31.00;15.10;;;;;;;35.05;24.66;101039.92;107952;1254;61692;-68
2023/09/29 06:16:15;;;;;;;34.60;14.60;;;;;;;35.09;24.46;101040.50;107909;1256;62448;-68
2023/09/29 06:18:42;;;;;;;30.40;14.10;;;;;;;35.09;24.80;101041.60;107892;1255;60426;-69
2023/09/29 06:21:10;;;;;;;30.40;13.50;;;;;;;35.29;24.63;101039.61;107929;1254;60372;-68
2023/09/29 06:23:37;;;;;;;35.30;13.30;;;;;;;35.63;24.34;101040.57;107906;1254;63625;-68
2023/09/29 06:26:05;;;;;;;38.90;14.30;;;;;;;35.92;23.73;101039.76;107887;1254;60340;-68
2023/09/29 06:28:32;;;;;;;41.60;14.20;;;;;;;36.23;23.45;101040.58;107827;1256;63771;-67
2023/09/29 06:30:59;;;;;;;39.90;14.40;;;;;;;36.42;22.91;101038.39;107864;1255;60319;-69
2023/09/29 06:33:27;;;;;;;34.10;13.70;;;;;;;36.41;22.42;101043.54;107908;1254;60354;-67
2023/09/29 06:35:55;;;;;;;35.90;13.60;;;;;;;36.55;22.47;101043.05;107885;1254;65022;-67
2023/09/29 06:38:23;;;;;;;36.30;13.40;;;;;;;36.89;22.22;101043.12;107892;1254;61553;-67
2023/09/29 06:40:51;;;;;;;32.10;11.70;;;;;;;37.20;21.88;101044.61;107935;1256;63733;-68
2023/09/29 06:43:18;;;;;;;29.90;12.40;;;;;;;37.34;21.71;101043.91;107898;1255;60367;-67
2023/09/29 06:45:46;;;;;;;29.90;13.50;;;;;;;37.55;21.49;101045.06;107751;1254;60387;-67
2023/09/29 06:48:17;;;;;;;33.60;12.70;;;;;;;37.68;21.20;101044.55;107894;1256;64995;-68
2023/09/29 06:50:47;;;;;;;25.30;11.90;;;;;;;37.77;21.23;101041.31;107763;1255;60371;-67
2023/09/29 06:53:14;;;;;;;28.50;11.30;;;;;;;37.83;21.04;101044.64;107928;1254;62438;-69
2023/09/29 06:55:41;;;;;;;23.90;11.10;;;;;;;38.03;20.93;101046.85;107930;1256;60482;-68
2023/09/29 06:58:09;;;;;;;33.00;12.40;;;;;;;38.33;20.67;101051.13;107886;1260;59663;-69
2023/09/29 07:00:36;;;;;;;21.60;11.10;;;;;;;38.66;20.37;101050.06;107881;1255;64900;-68
2023/09/29 07:03:04;;;;;;;23.00;10.60;;;;;;;38.80;20.25;101052.90;107947;1256;60419;-68
2023/09/29 07:05:31;;;;;;;22.70;11.30;;;;;;;38.99;20.04;101052.89;107873;1255;63741;-68
2023/09/29 07:07:59;;;;;;;24.00;11.00;;;;;;;39.09;19.82;101050.91;107932;1256;60449;-68
2023/09/29 07:10:26;;;;;;;26.70;11.10;;;;;;;39.21;19.72;101050.27;107885;1254;60369;-68
2023/09/29 07:12:53;;;;;;;20.80;10.20;;;;;;;39.34;19.71;101045.98;107800;1255;63982;-68
2023/09/29 07:15:21;;;;;;;23.40;11.30;;;;;;;39.56;19.41;101044.52;107904;1256;61539;-69
2023/09/29 07:17:50;;;;;;;33.20;10.80;;;;;;;39.67;19.50;101039.46;107893;1254;63895;-69
2023/09/29 07:20:18;;;;;;;27.10;11.10;;;;;;;39.66;19.35;101037.77;107896;1256;60401;-69
2023/09/29 07:22:46;;;;;;;26.20;10.40;;;;;;;39.80;19.18;101038.06;107929;1260;60548;-68
2023/09/29 07:25:14;;;;;;;25.80;9.60;;;;;;;39.91;19.01;101039.10;107919;1256;63685;-68
2023/09/29 07:27:42;;;;;;;28.80;10.70;;;;;;;39.96;18.88;101040.82;107934;1260;61398;-68
2023/09/29 07:30:10;;;;;;;21.10;10.10;;;;;;;40.21;18.87;101039.74;107959;1256;63822;-66
2023/09/29 07:32:43;;;;;;;21.60;10.10;;;;;;;40.64;18.50;101041.53;108058;1255;60325;-68
2023/09/29 07:35:11;;;;;;;33.60;9.90;;;;;;;40.86;18.34;101040.55;107943;1256;60333;-68
2023/09/29 07:37:38;;;;;;;22.50;9.70;;;;;;;41.24;18.12;101039.62;107864;1255;63649;-68
2023/09/29 07:40:07;;;;;;;24.30;9.00;;;;;;;41.35;17.76;101037.40;107979;1254;61318;-69
2023/09/29 07:42:35;;;;;;;32.70;9.50;;;;;;;41.57;17.60;101037.89;107903;1254;63770;-68
2023/09/29 07:45:03;;;;;;;19.20;9.10;;;;;;;41.84;17.26;101039.77;107938;1255;60404;-68
2023/09/29 07:47:31;;;;;;;23.70;8.20;;;;;;;41.62;17.30;101042.29;107966;1255;60378;-69
2023/09/29 07:49:58;;;;;;;17.10;8.00;;;;;;;41.53;17.39;101042.48;107938;1254;64964;-68
2023/09/29 07:52:28;;;;;;;28.00;8.30;;;;;;;41.75;17.18;101045.88;107912;1254;61489;-69
2023/09/29 07:54:59;;;;;;;14.00;7.50;;;;;;;42.18;16.81;101044.52;107917;1255;63883;-69
2023/09/29 07:57:26;;;;;;;14.80;7.90;;;;;;;42.60;16.24;101046.05;107901;1255;60349;-68
2023/09/29 07:59:53;;;;;;;17.90;7.60;;;;;;;42.50;16.22;101045.23;107954;1255;60345;-68
2023/09/29 08:02:21;;;;;;;17.60;7.80;;;;;;;42.43;16.42;101043.55;107911;1255;64971;-69
2023/09/29 08:04:49;;;;;;;20.60;7.90;;;;;;;42.66;16.00;101043.67;107894;1256;61385;-69
2023/09/29 08:07:17;;;;;;;15.50;7.40;;;;;;;42.98;15.82;101037.79;107934;1256;63681;-67
2023/09/29 08:09:45;;;;;;;15.40;6.90;;;;;;;43.17;15.57;101036.86;107933;1255;60359;-67
2023/09/29 08:12:13;;;;;;;21.60;7.60;;;;;;;43.38;15.34;101031.42;107877;1256;58597;-68
2023/09/29 08:14:41;;;;;;;16.90;7.50;;;;;;;43.42;15.32;101026.29;107843;1260;64929;-68
2023/09/29 08:17:09;;;;;;;17.20;7.10;;;;;;;43.46;14.95;101028.85;107805;1256;61659;-69
2023/09/29 08:19:37;;;;;;;14.40;7.10;;;;;;;43.53;14.99;101025.50;107802;1256;63765;-70
2023/09/29 08:22:04;;;;;;;20.40;6.70;;;;;;;43.52;14.70;101024.22;107607;1256;60402;-68
2023/09/29 08:24:32;;;;;;;20.40;6.90;;;;;;;43.13;14.64;101027.14;107819;1256;61046;-69
2023/09/29 08:27:02;;;;;;;16.30;6.50;;;;;;;42.89;14.95;101023.66;107896;1254;65116;-69
2023/09/29 08:29:30;;;;;;;19.30;6.60;;;;;;;42.98;14.84;101024.28;107901;1256;60893;-68
2023/09/29 08:31:59;;;;;;;13.30;5.70;;;;;;;43.13;14.60;101025.03;107823;1256;62564;-69
2023/09/29 08:34:34;;;;;;;9.70;5.70;;;;;;;43.39;14.65;101022.30;107814;1256;60331;-68
2023/09/29 08:37:03;;;;;;;12.50;5.90;;;;;;;43.24;14.03;101024.27;107842;1256;60160;-68
2023/09/29 08:39:30;;;;;;;18.80;6.20;;;;;;;42.99;14.12;101025.34;107871;1256;63732;-68
2023/09/29 08:42:05;;;;;;;12.00;6.00;;;;;;;42.77;14.40;101030.19;107902;1255;62548;-70
2023/09/29 08:44:32;;;;;;;14.00;5.30;;;;;;;42.88;14.27;101027.41;107869;1256;62503;-68
2023/09/29 08:47:04;;;;;;;11.70;5.50;;;;;;;42.92;14.19;101024.71;107836;1256;60339;-68
2023/09/29 08:49:31;;;;;;;12.00;4.50;;;;;;;42.93;14.28;101021.96;107873;1256;59803;-69
2023/09/29 08:52:17;;;;;;;10.20;4.90;;;;;;;42.43;13.82;101029.59;107860;1256;64192;-68
2023/09/29 08:54:45;;;;;;;12.00;5.80;;;;;;;42.19;14.17;101032.88;107802;1257;61367;-68
2023/09/29 08:57:12;;;;;;;8.50;4.70;;;;;;;42.07;13.79;101026.23;107580;1255;63735;-67
2023/09/29 08:59:40;;;;;;;13.40;5.40;;;;;;;42.27;13.83;101028.48;107776;1256;60393;-69
2023/09/29 09:02:07;;;;;;;14.30;5.50;;;;;;;42.59;14.06;101031.23;107814;1261;60521;-68
2023/09/29 09:04:35;;;;;;;17.90;6.10;;;;;;;43.11;13.62;101028.65;107626;1256;63858;-69
2023/09/29 09:07:02;;;;;;;14.00;5.10;;;;;;;43.60;13.39;101023.35;107854;1256;61567;-69
2023/09/29 09:09:30;;;;;;;17.00;4.80;;;;;;;43.78;13.11;101027.61;107854;1256;62460;-69
2023/09/29 09:11:58;;;;;;;16.50;5.40;;;;;;;43.79;13.10;101021.70;107851;1256;60343;-69
2023/09/29 09:14:25;;;;;;;9.50;5.30;;;;;;;43.90;13.19;101020.40;107877;1256;59664;-69
2023/09/29 09:16:53;;;;;;;11.40;5.50;;;;;;;44.03;13.28;101016.41;107835;1257;63707;-67
2023/09/29 09:19:21;;;;;;;10.60;4.70;;;;;;;43.59;12.97;101020.17;107591;1256;61996;-69
2023/09/29 09:21:48;;;;;;;11.70;5.10;;;;;;;42.84;13.33;101021.02;107850;1256;73231;-69
2023/09/29 09:24:23;;;;;;;11.20;5.00;;;;;;;42.21;13.71;101020.77;107651;1256;59681;-68
2023/09/29 09:26:51;;;;;;;8.00;4.70;;;;;;;41.64;13.96;101015.05;107870;1255;60444;-68
2023/09/29 09:29:19;;;;;;;10.30;5.00;;;;;;;41.56;13.75;101018.22;107847;1256;64923;-68
2023/09/29 09:31:51;;;;;;;11.00;5.30;;;;;;;41.51;14.00;101017.66;107812;1256;61536;-68
2023/09/29 09:34:18;;;;;;;13.70;5.10;;;;;;;41.60;13.76;101016.17;107755;1256;62516;-69
2023/09/29 09:36:52;;;;;;;11.50;4.70;;;;;;;41.99;13.54;101012.89;107941;1256;60464;-68
2023/09/29 09:39:22;;;;;;;9.40;5.10;;;;;;;42.01;13.39;101014.38;107919;1256;60348;-68
2023/09/29 09:41:54;;;;;;;;;;;;;;;41.69;13.79;101017.09;107874;1256;65104;-68
2023/09/29 09:44:21;;;;;;;9.60;4.90;;;;;;;41.51;13.62;101013.63;107834;1256;61407;-67
2023/09/29 09:46:54;;;;;;;8.50;4.80;;;;;;;41.58;13.92;101014.02;107893;1256;63273;-68
2023/09/29 09:52:35;;;;;;;11.90;5.10;;;;;;;41.10;14.24;101003.34;104864;1289;600048;-68
2023/09/29 09:55:12;;;;;;;8.90;4.80;;;;;;;41.98;13.60;101007.33;107308;1264;59243;-69
2023/09/29 09:57:42;;;;;;;10.80;5.30;;;;;;;41.59;13.88;101003.59;107342;1266;58997;-68
2023/09/29 10:00:10;;;;;;;10.30;5.20;;;;;;;41.29;13.82;100999.89;107352;1264;63459;-67
2023/09/29 10:02:48;;;;;;;12.40;5.40;;;;;;;41.09;13.91;101002.59;107355;1264;61904;-68
2023/09/29 10:05:22;;;;;;;9.20;5.30;;;;;;;40.88;14.04;101004.32;107241;1263;196247;-68
2023/09/29 10:07:51;;;;;;;10.70;5.30;;;;;;;40.49;14.43;100999.44;107462;1261;59260;-68
2023/09/29 10:10:31;;;;;;;10.00;5.00;;;;;;;40.33;14.38;100997.27;107544;1261;60587;-68
2023/09/29 10:13:01;;;;;;;9.40;5.20;;;;;;;40.22;14.42;100994.98;107498;1262;63473;-67
2023/09/29 10:15:29;;;;;;;13.20;5.50;;;;;;;40.54;14.67;100988.41;107508;1263;60538;-68
2023/09/29 10:17:58;;;;;;;9.10;5.50;;;;;;;40.83;14.34;100987.73;107487;1262;64110;-70
2023/09/29 10:20:29;;;;;;;8.10;5.00;;;;;;;40.96;13.89;100981.93;107492;1263;59507;-69
2023/09/29 10:23:13;;;;;;;10.70;4.90;;;;;;;41.05;13.99;100984.14;107540;1261;59634;-68
2023/09/29 10:25:58;;;;;;;12.20;5.10;;;;;;;41.40;13.85;100979.58;107520;1264;64237;-69
2023/09/29 10:28:35;;;;;;;10.70;5.30;;;;;;;41.67;13.65;100976.92;107436;1264;61768;-70
2023/09/29 10:31:14;;;;;;;11.00;5.20;;;;;;;41.75;13.90;100975.27;107336;1264;62862;-67
2023/09/29 10:33:52;;;;;;;12.30;5.10;;;;;;;42.15;13.72;100970.23;107342;1263;59526;-69
2023/09/29 10:36:28;;;;;;;7.80;5.20;;;;;;;42.77;13.30;100964.52;107372;1263;59557;-68
2023/09/29 10:38:57;;;;;;;8.40;4.80;;;;;;;43.12;13.42;100959.73;107428;1264;62851;-69
2023/09/29 10:41:24;;;;;;;9.80;5.30;;;;;;;43.22;13.01;100956.16;107429;1266;60410;-67
2023/09/29 10:44:04;;;;;;;12.00;5.50;;;;;;;43.38;12.97;100954.88;107410;1264;63854;-67
2023/09/29 10:46:31;;;;;;;7.50;4.80;;;;;;;43.53;13.02;100953.69;107363;1263;59024;-68
2023/09/29 10:48:58;;;;;;;13.20;5.20;;;;;;;43.08;12.79;100951.91;107375;1263;59345;-69
2023/09/29 10:51:27;;;;;;;11.50;5.40;;;;;;;42.96;12.71;100948.77;107526;1263;64534;-68
2023/09/29 10:53:54;;;;;;;13.60;5.70;;;;;;;42.93;12.72;100942.57;107644;1260;61624;-69
2023/09/29 10:56:22;;;;;;;11.20;5.40;;;;;;;42.97;12.96;100947.13;108216;1253;63972;-66
2023/09/29 10:58:52;;;;;;;9.00;5.10;;;;;;;42.28;13.17;100947.41;108167;1253;59504;-67
2023/09/29 11:01:26;;;;;;;7.80;4.30;;;;;;;41.86;13.38;100943.79;108193;1253;59102;-67
2023/09/29 11:03:56;;;;;;;10.60;5.30;;;;;;;41.43;13.73;100932.20;108198;1253;63001;-69
2023/09/29 11:06:24;;;;;;;11.90;5.60;;;;;;;41.18;13.91;100934.71;108067;1258;60691;-68
2023/09/29 11:08:52;;;;;;;9.00;5.20;;;;;;;41.12;13.84;100931.77;108182;1253;64865;-69
2023/09/29 11:11:19;;;;;;;7.70;5.00;;;;;;;40.95;14.18;100925.95;108152;1253;59456;-68
2023/09/29 11:13:55;;;;;;;10.20;5.60;;;;;;;40.68;14.32;100925.73;108237;1253;59593;-68
2023/09/29 11:16:25;;;;;;;10.30;5.30;;;;;;;40.18;14.44;100925.83;108251;1253;63311;-68
2023/09/29 11:18:56;;;;;;;9.40;5.00;;;;;;;39.69;14.57;100921.98;108234;1253;61397;-68